Time;durP1;ratioP1;P1;durP2;ratioP2;P2;SDS_P1;SDS_P2;PMS_P1;PMS_P2;Temp;Humidity;BMP_temperature;BMP_pressure;BME280_temperature;BME280_humidity;BME280_pressure;Samples;Min_cycle;Max_cycle;Signal;HPM_P1;HPM_P2
2022/03/20 00:01:02;;;;;;;7.65;5.95;;;;;;;;;;143742;613;46018;-66
2022/03/20 00:03:30;;;;;;;9.10;6.03;;;;;;;;;;143745;628;46022;-66
2022/03/20 00:05:58;;;;;;;9.70;6.40;;;;;;;;;;143740;570;47019;-66
2022/03/20 00:08:25;;;;;;;9.52;5.37;;;;;;;;;;143738;694;47012;-65
2022/03/20 00:10:55;;;;;;;15.27;6.28;;;;;;;;;;143742;584;45018;-66
2022/03/20 00:13:23;;;;;;;19.05;6.78;;;;;;;;;;143743;656;46023;-65
2022/03/20 00:15:52;;;;;;;9.48;6.15;;;;;;;;;;143742;590;47018;-65
2022/03/20 00:18:20;;;;;;;10.38;5.82;;;;;;;;;;143741;648;46012;-65
2022/03/20 00:20:51;;;;;;;8.43;5.90;;;;;;;;;;143740;570;45019;-65
2022/03/20 00:23:18;;;;;;;9.25;5.53;;;;;;;;;;143743;674;45022;-66
2022/03/20 00:25:46;;;;;;;12.10;6.00;;;;;;;;;;143739;591;47018;-66
2022/03/20 00:28:16;;;;;;;9.25;5.87;;;;;;;;;;143738;599;47012;-65
2022/03/20 00:30:45;;;;;;;9.55;5.55;;;;;;;;;;143736;617;45018;-65
2022/03/20 00:33:12;;;;;;;10.68;6.43;;;;;;;;;;143743;565;45022;-65
2022/03/20 00:35:39;;;;;;;9.88;6.12;;;;;;;;;;143741;594;47020;-65
2022/03/20 00:38:06;;;;;;;9.75;6.22;;;;;;;;;;143738;611;47012;-65
2022/03/20 00:40:34;;;;;;;9.23;6.10;;;;;;;;;;143740;580;46914;-65
2022/03/20 00:43:01;;;;;;;8.48;5.50;;;;;;;;;;143743;585;45036;-66
2022/03/20 00:45:28;;;;;;;7.78;5.50;;;;;;;;;;143739;584;47020;-65
2022/03/20 00:47:56;;;;;;;6.97;5.30;;;;;;;;;;143740;627;47010;-65
2022/03/20 00:50:23;;;;;;;14.27;5.28;;;;;;;;;;143742;609;45019;-65
2022/03/20 00:52:50;;;;;;;10.73;6.05;;;;;;;;;;143744;599;45022;-65
2022/03/20 00:55:17;;;;;;;9.27;5.43;;;;;;;;;;143733;584;47020;-65
2022/03/20 00:57:44;;;;;;;11.20;5.43;;;;;;;;;;143741;569;46010;-65
2022/03/20 01:00:11;;;;;;;12.40;5.50;;;;;;;;;;143740;588;45018;-65
2022/03/20 01:02:42;;;;;;;17.37;5.65;;;;;;;;;;143744;601;46022;-65
2022/03/20 01:05:10;;;;;;;7.62;5.43;;;;;;;;;;143740;576;47020;-65
2022/03/20 01:07:38;;;;;;;10.00;5.68;;;;;;;;;;143741;706;46010;-66
2022/03/20 01:10:06;;;;;;;9.35;6.05;;;;;;;;;;143740;641;45018;-65
2022/03/20 01:12:34;;;;;;;12.75;5.78;;;;;;;;;;143745;621;45023;-65
2022/03/20 01:15:03;;;;;;;9.75;5.68;;;;;;;;;;143741;590;47018;-65
2022/03/20 01:17:30;;;;;;;10.55;5.53;;;;;;;;;;143739;645;47010;-65
2022/03/20 01:19:57;;;;;;;8.25;5.05;;;;;;;;;;143736;597;45913;-65
2022/03/20 01:22:24;;;;;;;8.70;5.37;;;;;;;;;;143744;575;45023;-65
2022/03/20 01:24:51;;;;;;;11.73;6.12;;;;;;;;;;143740;585;47018;-65
2022/03/20 01:27:18;;;;;;;8.23;5.55;;;;;;;;;;143739;603;47010;-65
2022/03/20 01:29:45;;;;;;;11.57;6.18;;;;;;;;;;143742;585;45018;-65
2022/03/20 01:32:12;;;;;;;10.00;6.60;;;;;;;;;;143745;569;45022;-65
2022/03/20 01:34:39;;;;;;;10.40;5.62;;;;;;;;;;143742;607;46044;-65
2022/03/20 01:37:07;;;;;;;9.18;5.65;;;;;;;;;;143741;731;46010;-65
2022/03/20 01:39:34;;;;;;;12.13;5.68;;;;;;;;;;143740;582;45018;-65
2022/03/20 01:42:01;;;;;;;9.68;5.72;;;;;;;;;;143742;640;46022;-65
2022/03/20 01:44:32;;;;;;;10.35;5.55;;;;;;;;;;143737;701;47018;-65
2022/03/20 01:46:59;;;;;;;8.65;5.75;;;;;;;;;;143739;592;47027;-65
2022/03/20 01:49:27;;;;;;;8.32;5.53;;;;;;;;;;143740;702;45019;-65
2022/03/20 01:54:45;;;;;;;9.70;5.65;;;;;;;;;;143743;565;47018;-65
2022/03/20 01:57:20;;;;;;;8.23;5.25;;;;;;;;;;143742;576;46010;-65
2022/03/20 01:59:48;;;;;;;9.13;5.47;;;;;;;;;;143743;719;45018;-65
2022/03/20 02:02:15;;;;;;;11.20;5.32;;;;;;;;;;143743;671;47022;-65
2022/03/20 02:04:42;;;;;;;9.43;5.07;;;;;;;;;;143745;564;46019;-65
2022/03/20 02:07:09;;;;;;;9.18;5.40;;;;;;;;;;143741;596;46010;-65
2022/03/20 02:09:38;;;;;;;8.27;5.03;;;;;;;;;;143739;579;45018;-65
2022/03/20 02:12:05;;;;;;;9.82;5.68;;;;;;;;;;143746;577;46022;-65
2022/03/20 02:14:33;;;;;;;8.07;5.15;;;;;;;;;;143740;569;47021;-64
2022/03/20 02:17:02;;;;;;;6.45;4.70;;;;;;;;;;143742;581;46028;-65
2022/03/20 02:19:30;;;;;;;8.15;5.30;;;;;;;;;;143743;610;45019;-65
2022/03/20 02:21:57;;;;;;;7.95;5.03;;;;;;;;;;143745;574;46022;-65
2022/03/20 02:24:44;;;;;;;10.75;4.80;;;;;;;;;;143741;590;47018;-64
2022/03/20 02:27:16;;;;;;;14.40;4.95;;;;;;;;;;143740;581;47010;-65
2022/03/20 02:29:55;;;;;;;8.75;4.85;;;;;;;;;;143743;564;45018;-64
2022/03/20 02:32:25;;;;;;;9.52;5.50;;;;;;;;;;143745;571;46022;-65
2022/03/20 02:34:52;;;;;;;6.93;4.72;;;;;;;;;;143736;570;46042;-65
2022/03/20 02:37:20;;;;;;;9.68;4.78;;;;;;;;;;143741;580;47010;-65
2022/03/20 02:39:48;;;;;;;10.05;4.80;;;;;;;;;;143742;638;45018;-65
2022/03/20 02:42:16;;;;;;;10.10;4.80;;;;;;;;;;143743;578;47023;-65
2022/03/20 02:45:14;;;;;;;6.47;4.28;;;;;;;;;;143742;566;47020;-65
2022/03/20 02:47:43;;;;;;;7.60;4.97;;;;;;;;;;143741;572;47012;-65
2022/03/20 02:50:14;;;;;;;7.05;4.72;;;;;;;;;;143741;598;45019;-64
2022/03/20 02:52:46;;;;;;;8.52;4.97;;;;;;;;;;143744;570;45022;-65
2022/03/20 02:55:18;;;;;;;9.38;5.07;;;;;;;;;;143741;579;47020;-65
2022/03/20 02:57:45;;;;;;;10.88;5.32;;;;;;;;;;143743;564;45921;-65
2022/03/20 03:00:12;;;;;;;8.15;4.43;;;;;;;;;;143736;564;45910;-65
2022/03/20 03:02:44;;;;;;;8.13;4.60;;;;;;;;;;143745;587;45022;-65
2022/03/20 03:05:12;;;;;;;8.93;4.90;;;;;;;;;;143741;564;47021;-65
2022/03/20 03:13:12;;;;;;;6.50;4.53;;;;;;;;;;143745;566;45023;-65
2022/03/20 03:15:39;;;;;;;6.95;4.50;;;;;;;;;;143741;646;47018;-65
2022/03/20 03:18:06;;;;;;;10.23;4.60;;;;;;;;;;143742;578;46011;-65
2022/03/20 03:20:34;;;;;;;8.65;4.97;;;;;;;;;;143743;583;45019;-65
2022/03/20 03:23:01;;;;;;;12.05;5.28;;;;;;;;;;143744;563;46022;-65
2022/03/20 03:25:28;;;;;;;7.65;4.90;;;;;;;;;;143736;586;47019;-65
2022/03/20 03:27:55;;;;;;;9.70;5.05;;;;;;;;;;143742;607;46010;-65
2022/03/20 03:30:22;;;;;;;12.15;5.35;;;;;;;;;;143742;638;45018;-65
2022/03/20 03:32:49;;;;;;;8.23;4.50;;;;;;;;;;143746;570;45023;-64
2022/03/20 03:38:01;;;;;;;11.63;4.87;;;;;;;;;;143741;574;46010;-65
2022/03/20 03:40:28;;;;;;;8.00;4.65;;;;;;;;;;143741;589;45019;-65
2022/03/20 03:42:55;;;;;;;11.15;5.05;;;;;;;;;;143745;664;45023;-65
2022/03/20 03:45:23;;;;;;;14.00;5.62;;;;;;;;;;143741;586;47018;-65
2022/03/20 03:47:51;;;;;;;8.75;5.03;;;;;;;;;;143741;584;47011;-65
2022/03/20 03:50:19;;;;;;;6.35;4.82;;;;;;;;;;143738;650;46018;-65
2022/03/20 03:52:46;;;;;;;9.20;5.50;;;;;;;;;;143745;593;46022;-64
2022/03/20 03:55:14;;;;;;;6.03;4.43;;;;;;;;;;143741;577;47019;-65
2022/03/20 03:57:49;;;;;;;7.57;4.60;;;;;;;;;;143741;566;47011;-64
2022/03/20 04:00:17;;;;;;;9.82;5.28;;;;;;;;;;143743;573;45018;-64
2022/03/20 04:02:44;;;;;;;11.40;5.28;;;;;;;;;;143746;622;46022;-65
2022/03/20 04:05:12;;;;;;;8.52;5.00;;;;;;;;;;143740;585;47019;-64
2022/03/20 04:07:39;;;;;;;9.25;5.53;;;;;;;;;;143742;642;46010;-65
2022/03/20 04:10:06;;;;;;;10.85;5.50;;;;;;;;;;143744;566;45018;-65
2022/03/20 04:12:37;;;;;;;10.98;5.15;;;;;;;;;;143745;580;45023;-64
2022/03/20 04:15:05;;;;;;;7.47;5.32;;;;;;;;;;143735;565;47018;-65
2022/03/20 04:17:33;;;;;;;7.30;5.03;;;;;;;;;;143742;688;46028;-65
2022/03/20 04:20:00;;;;;;;7.15;5.35;;;;;;;;;;143743;576;45019;-65
2022/03/20 04:22:28;;;;;;;8.70;5.50;;;;;;;;;;143745;569;46022;-65
2022/03/20 04:24:55;;;;;;;9.18;5.93;;;;;;;;;;143744;573;47019;-65
2022/03/20 04:27:23;;;;;;;7.57;5.55;;;;;;;;;;143742;585;46010;-64
2022/03/20 04:29:50;;;;;;;9.52;6.15;;;;;;;;;;143743;569;45018;-65
2022/03/20 04:32:17;;;;;;;12.32;6.62;;;;;;;;;;143744;658;45023;-65
2022/03/20 04:34:44;;;;;;;12.40;7.78;;;;;;;;;;143742;602;47018;-65
2022/03/20 04:37:13;;;;;;;12.85;7.95;;;;;;;;;;143741;632;47010;-65
2022/03/20 04:39:40;;;;;;;10.98;7.68;;;;;;;;;;143739;577;45018;-65
2022/03/20 04:42:09;;;;;;;9.65;7.97;;;;;;;;;;143745;583;46023;-64
2022/03/20 04:44:39;;;;;;;10.02;6.95;;;;;;;;;;143741;564;47018;-66
2022/03/20 04:58:28;;;;;;;10.57;8.40;;;;;;;;;;143742;635;46011;-66
2022/03/20 05:00:54;;;;;;;10.63;8.73;;;;;;;;;;143741;594;45018;-64
2022/03/20 05:03:21;;;;;;;8.73;6.68;;;;;;;;;;143746;576;46022;-64
2022/03/20 05:05:48;;;;;;;9.88;7.87;;;;;;;;;;143738;623;47021;-64
2022/03/20 05:08:15;;;;;;;9.65;7.37;;;;;;;;;;143740;589;47010;-64
2022/03/20 05:13:27;;;;;;;12.75;7.15;;;;;;;;;;143746;571;45024;-64
2022/03/20 05:15:57;;;;;;;12.35;8.20;;;;;;;;;;143743;688;47018;-64
2022/03/20 05:18:25;;;;;;;11.32;7.32;;;;;;;;;;143741;583;46010;-64
2022/03/20 05:20:52;;;;;;;9.82;6.50;;;;;;;;;;143742;581;45018;-65
2022/03/20 05:23:20;;;;;;;10.27;6.90;;;;;;;;;;143745;585;46022;-64
2022/03/20 05:25:47;;;;;;;10.50;6.85;;;;;;;;;;143741;569;47019;-65
2022/03/20 05:28:16;;;;;;;10.63;6.22;;;;;;;;;;143742;591;46010;-64
2022/03/20 05:30:44;;;;;;;10.45;6.68;;;;;;;;;;143737;588;45018;-64
2022/03/20 05:33:12;;;;;;;13.40;7.57;;;;;;;;;;143745;569;45023;-65
2022/03/20 05:35:40;;;;;;;15.20;6.72;;;;;;;;;;143744;603;46020;-65
2022/03/20 05:38:10;;;;;;;9.57;7.20;;;;;;;;;;143742;626;47922;-65
2022/03/20 05:40:40;;;;;;;9.88;6.20;;;;;;;;;;143743;569;45019;-64
2022/03/20 05:43:11;;;;;;;16.45;6.12;;;;;;;;;;143745;587;46022;-64
2022/03/20 05:45:39;;;;;;;10.10;5.93;;;;;;;;;;143741;682;47018;-65
2022/03/20 05:48:08;;;;;;;10.23;6.30;;;;;;;;;;143742;579;46011;-65
2022/03/20 05:50:36;;;;;;;12.05;6.60;;;;;;;;;;143743;628;45020;-65
2022/03/20 05:53:03;;;;;;;7.75;6.03;;;;;;;;;;143745;742;46020;-65
2022/03/20 05:58:15;;;;;;;10.88;6.60;;;;;;;;;;143743;594;46010;-64
2022/03/20 06:00:42;;;;;;;9.43;6.20;;;;;;;;;;143744;582;46010;-64
2022/03/20 06:03:11;;;;;;;8.70;6.07;;;;;;;;;;143745;614;46022;-64
2022/03/20 06:05:39;;;;;;;7.90;5.85;;;;;;;;;;143744;657;47018;-64
2022/03/20 06:08:06;;;;;;;9.27;6.25;;;;;;;;;;143740;585;46029;-64
2022/03/20 06:10:34;;;;;;;8.15;6.00;;;;;;;;;;143740;606;45019;-64
2022/03/20 06:13:08;;;;;;;10.27;5.40;;;;;;;;;;143744;581;45022;-64
2022/03/20 06:15:35;;;;;;;8.48;5.85;;;;;;;;;;143739;577;47018;-64
2022/03/20 06:18:04;;;;;;;10.30;5.78;;;;;;;;;;143739;579;47010;-65
2022/03/20 06:20:35;;;;;;;9.57;5.68;;;;;;;;;;143737;658;45018;-65
2022/03/20 06:23:02;;;;;;;7.90;5.82;;;;;;;;;;143744;707;45022;-64
2022/03/20 06:25:29;;;;;;;10.80;5.57;;;;;;;;;;143740;622;47018;-64
2022/03/20 06:27:58;;;;;;;9.90;6.03;;;;;;;;;;143737;598;47010;-65
2022/03/20 06:30:26;;;;;;;7.07;5.05;;;;;;;;;;143742;605;45018;-64
2022/03/20 06:32:55;;;;;;;9.65;5.45;;;;;;;;;;143742;611;46012;-65
2022/03/20 06:35:22;;;;;;;10.30;6.80;;;;;;;;;;143739;564;47018;-65
2022/03/20 06:37:50;;;;;;;10.73;6.68;;;;;;;;;;143739;661;47010;-65
2022/03/20 06:40:18;;;;;;;8.63;5.43;;;;;;;;;;143739;585;45019;-65
2022/03/20 06:42:45;;;;;;;8.10;5.22;;;;;;;;;;143742;565;45023;-64
2022/03/20 06:45:12;;;;;;;10.45;5.82;;;;;;;;;;143734;564;47018;-65
2022/03/20 06:47:41;;;;;;;7.25;5.10;;;;;;;;;;143740;570;46011;-65
2022/03/20 06:50:10;;;;;;;12.95;5.15;;;;;;;;;;143738;583;45910;-65
2022/03/20 06:52:40;;;;;;;10.55;4.75;;;;;;;;;;143743;607;46022;-65
2022/03/20 06:55:09;;;;;;;7.70;4.32;;;;;;;;;;143739;588;47020;-65
2022/03/20 06:57:36;;;;;;;7.05;4.95;;;;;;;;;;143738;585;46010;-65
2022/03/20 07:00:06;;;;;;;8.20;5.05;;;;;;;;;;143739;629;45018;-65
2022/03/20 07:02:33;;;;;;;7.68;4.85;;;;;;;;;;143744;581;45023;-65
2022/03/20 07:05:00;;;;;;;7.85;5.22;;;;;;;;;;143739;571;47020;-64
2022/03/20 07:07:28;;;;;;;12.82;5.55;;;;;;;;;;143740;598;46028;-65
2022/03/20 07:09:55;;;;;;;9.27;5.20;;;;;;;;;;143736;628;45019;-65
2022/03/20 07:12:22;;;;;;;12.77;5.57;;;;;;;;;;143743;564;45023;-64
2022/03/20 07:14:50;;;;;;;9.60;4.90;;;;;;;;;;143737;626;47027;-65
2022/03/20 07:17:19;;;;;;;7.80;5.28;;;;;;;;;;143740;578;46010;-65
2022/03/20 07:19:46;;;;;;;7.07;4.37;;;;;;;;;;143739;573;45018;-64
2022/03/20 07:22:14;;;;;;;6.97;5.22;;;;;;;;;;143744;639;46012;-64
2022/03/20 07:24:43;;;;;;;10.43;5.03;;;;;;;;;;143741;584;47019;-65
2022/03/20 07:30:15;;;;;;;7.30;4.37;;;;;;;;;;143742;681;46018;-65
2022/03/20 07:32:41;;;;;;;8.25;5.00;;;;;;;;;;143744;602;46023;-65
2022/03/20 07:35:09;;;;;;;9.25;5.60;;;;;;;;;;143734;578;47018;-65
2022/03/20 07:37:36;;;;;;;8.88;4.53;;;;;;;;;;143740;570;46010;-65
2022/03/20 07:40:03;;;;;;;7.15;4.70;;;;;;;;;;143739;607;45019;-65
2022/03/20 07:42:30;;;;;;;8.10;5.28;;;;;;;;;;143743;604;45023;-65
2022/03/20 07:44:58;;;;;;;8.38;6.15;;;;;;;;;;143741;602;47018;-64
2022/03/20 07:47:26;;;;;;;8.73;5.28;;;;;;;;;;143739;592;47010;-64
2022/03/20 07:49:53;;;;;;;7.90;4.22;;;;;;;;;;143737;590;46018;-65
2022/03/20 07:52:20;;;;;;;8.20;4.70;;;;;;;;;;143745;659;45022;-65
2022/03/20 07:54:47;;;;;;;9.93;4.87;;;;;;;;;;143739;572;47019;-64
2022/03/20 07:57:15;;;;;;;6.93;4.80;;;;;;;;;;143739;594;47010;-65
2022/03/20 07:59:44;;;;;;;6.32;4.65;;;;;;;;;;143733;632;46018;-64
2022/03/20 08:02:12;;;;;;;10.32;4.90;;;;;;;;;;143743;589;45023;-64
2022/03/20 08:04:40;;;;;;;8.75;5.28;;;;;;;;;;143740;625;47018;-64
2022/03/20 08:07:07;;;;;;;7.12;4.95;;;;;;;;;;143738;621;47010;-64
2022/03/20 08:09:34;;;;;;;9.73;4.95;;;;;;;;;;143741;585;45019;-65
2022/03/20 08:12:01;;;;;;;15.40;7.05;;;;;;;;;;143743;602;46022;-65
2022/03/20 08:14:29;;;;;;;8.35;4.90;;;;;;;;;;143738;587;47018;-65
2022/03/20 08:16:56;;;;;;;23.48;12.30;;;;;;;;;;143738;608;47010;-65
2022/03/20 08:19:23;;;;;;;11.77;6.18;;;;;;;;;;143739;569;45019;-65
2022/03/20 08:21:51;;;;;;;10.57;4.70;;;;;;;;;;143744;590;46022;-64
2022/03/20 08:24:19;;;;;;;8.45;5.78;;;;;;;;;;143733;596;47019;-64
2022/03/20 08:26:46;;;;;;;14.90;7.37;;;;;;;;;;143738;571;46022;-65
2022/03/20 08:29:14;;;;;;;11.05;6.43;;;;;;;;;;143741;605;45018;-65
2022/03/20 08:31:47;;;;;;;14.32;6.97;;;;;;;;;;143744;620;46022;-64
2022/03/20 08:34:17;;;;;;;9.73;5.75;;;;;;;;;;143739;604;47021;-64
2022/03/20 08:36:45;;;;;;;10.63;5.97;;;;;;;;;;143739;575;46028;-64
2022/03/20 08:39:12;;;;;;;14.68;5.60;;;;;;;;;;143738;589;45019;-65
2022/03/20 08:41:39;;;;;;;9.40;5.32;;;;;;;;;;143742;644;45023;-65
2022/03/20 08:44:08;;;;;;;11.43;5.60;;;;;;;;;;143740;564;47018;-64
2022/03/20 08:46:35;;;;;;;13.75;5.47;;;;;;;;;;143737;599;47010;-64
2022/03/20 08:49:09;;;;;;;7.35;4.50;;;;;;;;;;143734;589;45018;-64
2022/03/20 08:51:38;;;;;;;10.95;5.05;;;;;;;;;;143741;582;46022;-65
2022/03/20 08:54:05;;;;;;;8.55;5.20;;;;;;;;;;143738;576;47020;-65
2022/03/20 08:56:33;;;;;;;10.85;5.10;;;;;;;;;;143738;606;46012;-65
2022/03/20 08:59:00;;;;;;;7.78;4.55;;;;;;;;;;143738;563;45018;-64
2022/03/20 09:01:27;;;;;;;9.18;4.97;;;;;;;;;;143743;580;46022;-65
2022/03/20 09:03:54;;;;;;;7.93;4.93;;;;;;;;;;143738;633;47018;-65
2022/03/20 09:06:22;;;;;;;8.43;5.00;;;;;;;;;;143738;575;47010;-65
2022/03/20 09:08:50;;;;;;;9.75;5.25;;;;;;;;;;143741;645;45019;-65
2022/03/20 09:11:21;;;;;;;7.57;5.20;;;;;;;;;;143742;589;46012;-64
2022/03/20 09:13:48;;;;;;;7.97;4.55;;;;;;;;;;143737;566;47018;-65
2022/03/20 09:19:00;;;;;;;12.02;4.82;;;;;;;;;;143742;576;46010;-65
2022/03/20 09:21:33;;;;;;;11.70;5.87;;;;;;;;;;143743;633;46022;-65
2022/03/20 09:24:00;;;;;;;8.68;4.90;;;;;;;;;;143738;625;47019;-65
2022/03/20 09:26:28;;;;;;;9.32;5.20;;;;;;;;;;143739;647;47022;-65
2022/03/20 09:28:55;;;;;;;9.45;5.90;;;;;;;;;;143741;597;45018;-65
2022/03/20 09:31:23;;;;;;;8.70;5.20;;;;;;;;;;143743;564;46022;-65
2022/03/20 09:33:50;;;;;;;12.50;6.45;;;;;;;;;;143740;609;47021;-65
2022/03/20 09:36:18;;;;;;;8.70;5.95;;;;;;;;;;143740;629;46010;-65
2022/03/20 09:38:45;;;;;;;8.98;5.10;;;;;;;;;;143738;638;45019;-66
2022/03/20 09:41:12;;;;;;;7.82;5.45;;;;;;;;;;143744;572;46023;-65
2022/03/20 09:43:41;;;;;;;8.93;5.00;;;;;;;;;;143741;573;47018;-66
2022/03/20 09:46:08;;;;;;;7.95;4.37;;;;;;;;;;143739;576;47010;-65
2022/03/20 09:48:35;;;;;;;8.20;4.75;;;;;;;;;;143737;660;45911;-65
2022/03/20 09:51:05;;;;;;;10.65;5.00;;;;;;;;;;143743;595;46022;-66
2022/03/20 09:53:33;;;;;;;8.90;4.70;;;;;;;;;;143740;569;47020;-65
2022/03/20 09:56:00;;;;;;;9.10;5.03;;;;;;;;;;143737;576;47010;-65
2022/03/20 09:58:29;;;;;;;13.30;6.60;;;;;;;;;;143739;635;45018;-65
2022/03/20 10:00:57;;;;;;;9.23;5.68;;;;;;;;;;143744;585;46022;-65
2022/03/20 10:03:25;;;;;;;7.00;4.60;;;;;;;;;;143737;621;47018;-65
2022/03/20 10:06:24;;;;;;;10.82;5.20;;;;;;;;;;143739;634;46010;-65
2022/03/20 10:09:09;;;;;;;13.02;6.37;;;;;;;;;;143741;642;45020;-65
2022/03/20 10:11:39;;;;;;;9.88;5.78;;;;;;;;;;143742;585;45022;-65
2022/03/20 10:14:25;;;;;;;12.35;5.85;;;;;;;;;;143729;565;47018;-65
2022/03/20 10:17:09;;;;;;;12.27;5.85;;;;;;;;;;143725;604;46011;-65
2022/03/20 10:19:35;;;;;;;13.07;6.53;;;;;;;;;;143726;573;45018;-66
2022/03/20 10:22:14;;;;;;;9.65;5.60;;;;;;;;;;143729;730;46012;-65
2022/03/20 10:24:48;;;;;;;10.18;5.20;;;;;;;;;;143727;566;47018;-66
2022/03/20 10:27:16;;;;;;;12.90;5.50;;;;;;;;;;143725;571;47010;-65
2022/03/20 10:29:55;;;;;;;12.23;5.82;;;;;;;;;;143725;585;45910;-65
2022/03/20 10:32:24;;;;;;;8.88;5.05;;;;;;;;;;143729;570;46012;-66
2022/03/20 10:34:59;;;;;;;14.02;6.78;;;;;;;;;;143726;574;47018;-66
2022/03/20 10:37:55;;;;;;;9.85;5.53;;;;;;;;;;143726;583;46028;-66
2022/03/20 10:40:28;;;;;;;11.45;6.72;;;;;;;;;;143725;570;45020;-65
2022/03/20 10:43:15;;;;;;;12.25;7.15;;;;;;;;;;143728;656;47012;-65
2022/03/20 10:46:01;;;;;;;11.73;6.25;;;;;;;;;;143725;575;47019;-66
2022/03/20 10:48:45;;;;;;;;;;;;;;;;;;143730;977;46010;-65
2022/03/20 10:51:12;;;;;;;9.95;5.70;;;;;;;;;;143732;576;45018;-65
2022/03/20 10:54:00;;;;;;;11.10;6.15;;;;;;;;;;143728;591;46011;-64
2022/03/20 10:56:27;;;;;;;7.07;4.75;;;;;;;;;;143725;602;47021;-65
2022/03/20 10:58:54;;;;;;;9.50;5.50;;;;;;;;;;143726;671;46010;-65
2022/03/20 11:01:37;;;;;;;13.62;5.65;;;;;;;;;;143725;577;45019;-66
2022/03/20 11:04:08;;;;;;;13.90;6.25;;;;;;;;;;143729;580;46010;-66
2022/03/20 11:06:36;;;;;;;10.52;6.07;;;;;;;;;;143726;635;47018;-65
2022/03/20 11:09:04;;;;;;;10.02;5.60;;;;;;;;;;143726;609;46027;-65
2022/03/20 11:11:34;;;;;;;11.65;5.45;;;;;;;;;;143725;574;45018;-65
2022/03/20 11:14:04;;;;;;;15.70;6.28;;;;;;;;;;143739;571;46022;-65
2022/03/20 11:16:38;;;;;;;13.50;5.37;;;;;;;;;;143740;567;47018;-64
2022/03/20 11:19:11;;;;;;;11.02;5.93;;;;;;;;;;143740;572;46030;-65
2022/03/20 11:21:41;;;;;;;10.25;5.87;;;;;;;;;;143735;601;45913;-65
2022/03/20 11:24:09;;;;;;;23.05;11.48;;;;;;;;;;143741;566;46023;-64
2022/03/20 11:26:40;;;;;;;25.48;13.35;;;;;;;;;;143740;564;47018;-64
2022/03/20 11:29:08;;;;;;;25.73;11.32;;;;;;;;;;143735;641;47010;-65
2022/03/20 11:31:37;;;;;;;17.08;8.15;;;;;;;;;;143740;593;45019;-64
2022/03/20 11:34:09;;;;;;;17.75;7.32;;;;;;;;;;143744;738;45022;-64
2022/03/20 11:37:10;;;;;;;11.15;6.00;;;;;;;;;;143740;582;47020;-65
2022/03/20 11:39:39;;;;;;;14.05;5.95;;;;;;;;;;143740;615;46010;-65
2022/03/20 11:42:41;;;;;;;9.88;5.80;;;;;;;;;;143741;637;45018;-65
2022/03/20 11:45:16;;;;;;;12.52;5.25;;;;;;;;;;143743;569;45023;-65
2022/03/20 11:47:46;;;;;;;10.23;5.25;;;;;;;;;;143733;566;47018;-65
2022/03/20 11:50:26;;;;;;;11.38;5.18;;;;;;;;;;143737;640;47010;-65
2022/03/20 11:53:06;;;;;;;9.93;5.47;;;;;;;;;;143739;585;45019;-65
2022/03/20 11:55:40;;;;;;;8.32;5.10;;;;;;;;;;143743;575;46023;-64
2022/03/20 11:58:41;;;;;;;11.55;5.37;;;;;;;;;;143740;563;47018;-65
2022/03/20 12:01:09;;;;;;;10.25;4.65;;;;;;;;;;143737;629;47010;-65
2022/03/20 12:04:03;;;;;;;9.57;4.50;;;;;;;;;;143740;609;45018;-65
2022/03/20 12:07:12;;;;;;;9.15;4.90;;;;;;;;;;143743;593;45022;-65
2022/03/20 12:09:59;;;;;;;15.00;5.50;;;;;;;;;;143739;609;47018;-65
2022/03/20 12:13:00;;;;;;;27.25;12.85;;;;;;;;;;143738;590;47010;-65
2022/03/20 12:15:30;;;;;;;36.60;18.75;;;;;;;;;;143735;582;45019;-65
2022/03/20 12:18:08;;;;;;;21.65;10.80;;;;;;;;;;143741;584;45022;-65
2022/03/20 12:21:00;;;;;;;19.62;10.13;;;;;;;;;;143740;590;47018;-64
2022/03/20 12:23:43;;;;;;;10.77;6.65;;;;;;;;;;143742;678;46023;-65
2022/03/20 12:26:36;;;;;;;16.70;6.90;;;;;;;;;;143740;591;45018;-65
2022/03/20 12:29:35;;;;;;;11.10;5.72;;;;;;;;;;143743;570;46022;-65
2022/03/20 12:32:07;;;;;;;14.50;6.43;;;;;;;;;;143741;614;47018;-65
2022/03/20 12:34:34;;;;;;;9.27;5.40;;;;;;;;;;143742;637;46010;-64
2022/03/20 12:37:48;;;;;;;9.38;5.60;;;;;;;;;;143741;603;45019;-66
2022/03/20 12:40:40;;;;;;;9.18;5.60;;;;;;;;;;143744;685;45023;-65
2022/03/20 12:43:10;;;;;;;9.50;4.57;;;;;;;;;;143732;653;47018;-65
2022/03/20 12:45:45;;;;;;;6.43;4.50;;;;;;;;;;143741;608;46026;-65
2022/03/20 12:48:20;;;;;;;12.40;5.35;;;;;;;;;;143742;622;45018;-65
2022/03/20 12:50:49;;;;;;;8.33;4.80;;;;;;;;;;143743;596;45022;-65
2022/03/20 12:53:18;;;;;;;8.65;4.32;;;;;;;;;;143739;579;47019;-65
2022/03/20 12:56:20;;;;;;;9.68;4.80;;;;;;;;;;143739;582;47010;-65
2022/03/20 12:58:47;;;;;;;11.15;4.12;;;;;;;;;;143741;586;45020;-65
2022/03/20 13:01:15;;;;;;;9.10;5.07;;;;;;;;;;143743;569;45023;-65
2022/03/20 13:03:42;;;;;;;7.85;4.30;;;;;;;;;;143739;571;47018;-64
2022/03/20 13:06:09;;;;;;;8.05;4.50;;;;;;;;;;143738;626;47010;-65
2022/03/20 13:08:39;;;;;;;7.62;4.35;;;;;;;;;;143737;569;45019;-65
2022/03/20 13:14:04;;;;;;;12.30;4.53;;;;;;;;;;143745;570;46027;-65
2022/03/20 13:16:34;;;;;;;7.18;4.43;;;;;;;;;;143739;571;47010;-65
2022/03/20 13:19:01;;;;;;;7.28;4.50;;;;;;;;;;143742;582;45018;-65
2022/03/20 13:21:29;;;;;;;9.82;4.43;;;;;;;;;;143744;574;45022;-64
2022/03/20 13:23:56;;;;;;;8.77;4.57;;;;;;;;;;143741;631;47018;-64
2022/03/20 13:26:23;;;;;;;6.60;4.72;;;;;;;;;;143741;639;46052;-65
2022/03/20 13:28:50;;;;;;;6.70;4.37;;;;;;;;;;143742;639;45018;-64
2022/03/20 13:31:22;;;;;;;8.10;4.75;;;;;;;;;;143744;590;46023;-65
2022/03/20 13:33:57;;;;;;;6.60;4.45;;;;;;;;;;143738;576;47018;-65
2022/03/20 13:36:35;;;;;;;6.82;4.90;;;;;;;;;;143741;572;46026;-65
2022/03/20 13:39:09;;;;;;;9.63;4.60;;;;;;;;;;143740;571;46012;-65
2022/03/20 13:41:41;;;;;;;7.87;4.85;;;;;;;;;;143745;635;45022;-65
2022/03/20 13:44:11;;;;;;;8.48;5.75;;;;;;;;;;143741;607;47020;-65
2022/03/20 13:46:39;;;;;;;10.38;4.80;;;;;;;;;;143741;629;46024;-65
2022/03/20 13:49:13;;;;;;;6.93;4.20;;;;;;;;;;143740;599;45018;-65
2022/03/20 13:51:43;;;;;;;8.30;4.83;;;;;;;;;;143744;616;46022;-64
2022/03/20 13:54:39;;;;;;;7.53;4.90;;;;;;;;;;143741;601;47018;-65
2022/03/20 13:57:14;;;;;;;10.60;4.57;;;;;;;;;;143740;575;46010;-65
2022/03/20 13:59:52;;;;;;;8.35;5.00;;;;;;;;;;143737;596;45019;-65
2022/03/20 14:02:20;;;;;;;8.98;5.43;;;;;;;;;;143744;594;46022;-65
2022/03/20 14:04:51;;;;;;;7.87;5.20;;;;;;;;;;143740;568;47018;-65
2022/03/20 14:07:23;;;;;;;8.52;4.82;;;;;;;;;;143738;564;47010;-65
2022/03/20 14:09:52;;;;;;;10.98;4.95;;;;;;;;;;143743;578;45018;-65
2022/03/20 14:12:30;;;;;;;9.95;5.47;;;;;;;;;;143745;604;46022;-65
2022/03/20 14:15:18;;;;;;;8.75;5.65;;;;;;;;;;143744;668;46020;-65
2022/03/20 14:17:55;;;;;;;11.80;4.87;;;;;;;;;;143741;586;46010;-66
2022/03/20 14:20:27;;;;;;;6.87;4.80;;;;;;;;;;143742;584;45018;-65
2022/03/20 14:22:57;;;;;;;8.45;4.68;;;;;;;;;;143746;591;45023;-65
2022/03/20 14:25:44;;;;;;;6.28;4.50;;;;;;;;;;143732;579;47020;-65
2022/03/20 14:28:13;;;;;;;7.50;5.05;;;;;;;;;;143742;593;46012;-65
2022/03/20 14:41:55;;;;;;;8.65;4.85;;;;;;;;;;143740;612;47010;-65
2022/03/20 14:44:30;;;;;;;9.25;5.28;;;;;;;;;;143744;591;45023;-65
2022/03/20 14:47:00;;;;;;;7.43;4.47;;;;;;;;;;143742;591;47021;-64
2022/03/20 14:49:31;;;;;;;6.75;4.72;;;;;;;;;;143742;583;46010;-65
2022/03/20 14:51:58;;;;;;;8.13;5.12;;;;;;;;;;143742;570;45019;-65
2022/03/20 14:54:26;;;;;;;6.90;4.70;;;;;;;;;;143745;598;46022;-65
2022/03/20 14:56:56;;;;;;;8.85;4.57;;;;;;;;;;143741;573;47018;-65
2022/03/20 14:59:24;;;;;;;8.40;5.18;;;;;;;;;;143742;677;46011;-65
2022/03/20 15:01:51;;;;;;;10.43;4.93;;;;;;;;;;143742;589;45018;-65
2022/03/20 15:04:19;;;;;;;8.85;4.87;;;;;;;;;;143746;581;46022;-65
2022/03/20 15:06:50;;;;;;;6.95;5.00;;;;;;;;;;143742;609;47019;-65
2022/03/20 15:12:03;;;;;;;9.68;4.87;;;;;;;;;;143743;652;47020;-65
2022/03/20 15:14:31;;;;;;;7.03;4.87;;;;;;;;;;143745;622;45023;-64
2022/03/20 15:16:59;;;;;;;7.22;4.65;;;;;;;;;;143735;595;47020;-65
2022/03/20 15:19:26;;;;;;;6.70;4.60;;;;;;;;;;143742;565;46010;-65
2022/03/20 15:21:53;;;;;;;8.98;4.80;;;;;;;;;;143741;594;45019;-65
2022/03/20 15:24:20;;;;;;;8.27;4.82;;;;;;;;;;143745;606;46022;-65
2022/03/20 15:26:47;;;;;;;5.60;4.28;;;;;;;;;;143740;585;47020;-65
2022/03/20 15:29:14;;;;;;;7.28;4.62;;;;;;;;;;143741;613;46027;-65
2022/03/20 15:31:46;;;;;;;13.25;5.40;;;;;;;;;;143743;565;45018;-65
2022/03/20 15:34:16;;;;;;;7.45;4.47;;;;;;;;;;143746;587;45022;-65
2022/03/20 15:36:44;;;;;;;7.47;4.72;;;;;;;;;;143742;617;47019;-64
2022/03/20 15:39:15;;;;;;;8.70;5.37;;;;;;;;;;143741;575;47010;-64
2022/03/20 15:41:47;;;;;;;6.35;4.68;;;;;;;;;;143738;614;45018;-65
2022/03/20 15:44:14;;;;;;;8.60;4.90;;;;;;;;;;143745;599;45023;-65
2022/03/20 15:46:42;;;;;;;8.65;4.57;;;;;;;;;;143741;573;47021;-65
2022/03/20 15:49:09;;;;;;;6.85;4.72;;;;;;;;;;143742;564;47010;-65